Time;durP1;ratioP1;P1;durP2;ratioP2;P2;SDS_P1;SDS_P2;PMS_P1;PMS_P2;Temp;Humidity;BMP_temperature;BMP_pressure;BME280_temperature;BME280_humidity;BME280_pressure;Samples;Min_cycle;Max_cycle;Signal;HPM_P1;HPM_P2
2021/12/06 00:00:26;;;;;;;20.37;9.70;;;;;;;;;;4962601;28;20211;-80
2021/12/06 00:02:55;;;;;;;20.90;9.20;;;;;;;;;;4951685;28;20666;-80
2021/12/06 00:05:24;;;;;;;17.90;9.60;;;;;;;;;;4938811;28;20230;-81
2021/12/06 00:07:51;;;;;;;22.03;9.50;;;;;;;;;;4935110;28;20309;-80
2021/12/06 00:10:19;;;;;;;18.13;9.57;;;;;;;;;;4939650;28;20285;-82
2021/12/06 00:12:47;;;;;;;19.17;9.80;;;;;;;;;;4938351;28;20313;-83
2021/12/06 00:15:14;;;;;;;21.37;9.97;;;;;;;;;;4947729;28;20210;-81
2021/12/06 00:17:42;;;;;;;19.70;9.23;;;;;;;;;;4942682;29;20257;-80
2021/12/06 00:20:11;;;;;;;23.20;9.13;;;;;;;;;;4938288;29;20817;-82
2021/12/06 00:22:39;;;;;;;19.13;9.20;;;;;;;;;;4947055;28;20245;-82
2021/12/06 00:25:09;;;;;;;21.23;9.30;;;;;;;;;;4941314;28;21249;-81
2021/12/06 00:27:39;;;;;;;23.57;10.67;;;;;;;;;;4940666;28;20720;-82
2021/12/06 00:30:07;;;;;;;20.50;9.90;;;;;;;;;;4945676;28;20246;-81
2021/12/06 00:32:35;;;;;;;15.07;8.40;;;;;;;;;;4938402;28;20257;-80
2021/12/06 00:35:02;;;;;;;17.23;9.07;;;;;;;;;;4936611;28;20301;-82
2021/12/06 00:37:34;;;;;;;17.30;8.97;;;;;;;;;;4938572;29;20242;-83
2021/12/06 00:40:02;;;;;;;18.27;8.60;;;;;;;;;;4940100;28;20265;-82
2021/12/06 00:42:33;;;;;;;17.90;7.50;;;;;;;;;;4936197;28;20238;-80
2021/12/06 00:45:02;;;;;;;15.63;7.70;;;;;;;;;;4936847;28;20205;-81
2021/12/06 00:47:30;;;;;;;20.83;8.50;;;;;;;;;;4942345;28;20677;-82
2021/12/06 00:49:57;;;;;;;22.37;9.87;;;;;;;;;;4940322;29;20321;-82
2021/12/06 00:52:24;;;;;;;19.23;9.17;;;;;;;;;;4940996;29;20254;-81
2021/12/06 00:54:52;;;;;;;25.77;10.07;;;;;;;;;;4950030;29;20221;-80
2021/12/06 00:57:19;;;;;;;20.83;9.57;;;;;;;;;;4940597;28;20684;-81
2021/12/06 00:59:46;;;;;;;18.80;9.47;;;;;;;;;;4944589;28;20746;-83
2021/12/06 01:02:17;;;;;;;15.93;9.10;;;;;;;;;;4943858;28;20230;-81
2021/12/06 01:04:45;;;;;;;18.87;9.53;;;;;;;;;;4961723;28;20235;-81
2021/12/06 01:07:12;;;;;;;21.30;9.33;;;;;;;;;;4955224;28;20273;-81
2021/12/06 01:09:41;;;;;;;17.80;9.07;;;;;;;;;;4942967;28;20505;-81
2021/12/06 01:12:09;;;;;;;18.97;9.03;;;;;;;;;;4940725;28;20919;-80
2021/12/06 01:14:37;;;;;;;18.40;9.27;;;;;;;;;;4939536;28;20328;-80
2021/12/06 01:17:05;;;;;;;22.10;10.33;;;;;;;;;;4941682;29;20345;-81
2021/12/06 01:19:35;;;;;;;22.23;10.40;;;;;;;;;;4954218;29;20214;-81
2021/12/06 01:22:14;;;;;;;20.43;10.43;;;;;;;;;;4944197;29;20504;-80
2021/12/06 01:24:46;;;;;;;24.47;10.93;;;;;;;;;;4944419;29;20458;-81
2021/12/06 01:27:31;;;;;;;25.97;9.77;;;;;;;;;;4949025;28;20258;-80
2021/12/06 01:30:18;;;;;;;18.57;9.27;;;;;;;;;;4941293;28;20461;-80
2021/12/06 01:41:13;;;;;;;22.43;10.97;;;;;;;;;;4934876;28;21073;-78
2021/12/06 01:43:56;;;;;;;23.50;10.97;;;;;;;;;;4943848;28;20546;-81
2021/12/06 01:46:23;;;;;;;25.17;10.70;;;;;;;;;;4940584;29;20584;-80
2021/12/06 01:48:50;;;;;;;18.73;9.63;;;;;;;;;;4942350;29;20209;-80
2021/12/06 01:51:18;;;;;;;21.37;10.53;;;;;;;;;;4935679;29;21442;-82
2021/12/06 01:53:46;;;;;;;20.27;9.70;;;;;;;;;;4942197;28;20494;-82
2021/12/06 01:56:13;;;;;;;18.10;10.17;;;;;;;;;;4937974;28;20468;-79
2021/12/06 01:58:40;;;;;;;19.83;9.63;;;;;;;;;;4939617;28;20611;-81
2021/12/06 02:01:07;;;;;;;33.27;12.50;;;;;;;;;;4940044;28;20212;-79
2021/12/06 02:03:35;;;;;;;26.47;11.20;;;;;;;;;;4939711;28;20553;-78
2021/12/06 02:06:02;;;;;;;20.77;10.00;;;;;;;;;;4934248;29;21131;-81
2021/12/06 02:08:30;;;;;;;21.00;10.33;;;;;;;;;;4936223;29;20564;-79
2021/12/06 02:11:01;;;;;;;20.07;10.03;;;;;;;;;;4946517;28;20237;-81
2021/12/06 02:13:38;;;;;;;23.83;10.33;;;;;;;;;;4951112;28;20576;-78
2021/12/06 02:16:10;;;;;;;18.73;9.87;;;;;;;;;;4964205;29;20434;-78
2021/12/06 02:18:46;;;;;;;19.17;9.43;;;;;;;;;;4952438;28;20487;-79
2021/12/06 02:21:17;;;;;;;19.77;8.97;;;;;;;;;;4943929;28;20461;-82
2021/12/06 02:23:45;;;;;;;19.80;9.80;;;;;;;;;;4942650;28;20214;-80
2021/12/06 02:26:13;;;;;;;18.23;8.63;;;;;;;;;;4940934;28;20968;-80
2021/12/06 02:31:08;;;;;;;21.40;9.60;;;;;;;;;;4919384;29;20574;-80
2021/12/06 02:33:36;;;;;;;17.73;8.93;;;;;;;;;;4938714;29;20232;-79
2021/12/06 02:36:03;;;;;;;18.77;8.73;;;;;;;;;;4935927;29;20241;-83
2021/12/06 02:38:32;;;;;;;18.93;9.47;;;;;;;;;;4906464;29;20650;-81
2021/12/06 02:40:59;;;;;;;21.63;9.80;;;;;;;;;;4908107;29;20653;-80
2021/12/06 02:43:26;;;;;;;27.87;10.00;;;;;;;;;;4908378;29;20552;-82
2021/12/06 02:45:54;;;;;;;22.80;9.93;;;;;;;;;;4909786;29;21026;-79
2021/12/06 02:48:21;;;;;;;21.53;9.57;;;;;;;;;;4921471;29;20886;-80
2021/12/06 02:50:50;;;;;;;21.47;9.40;;;;;;;;;;4920653;29;20530;-78
2021/12/06 02:53:18;;;;;;;22.13;10.03;;;;;;;;;;4914786;29;20483;-79
2021/12/06 02:55:51;;;;;;;22.73;10.27;;;;;;;;;;4911345;29;20483;-80
2021/12/06 02:58:33;;;;;;;21.43;9.87;;;;;;;;;;4897287;29;21101;-80
2021/12/06 03:01:00;;;;;;;19.73;9.23;;;;;;;;;;4897119;29;20467;-81
2021/12/06 03:03:28;;;;;;;17.83;9.00;;;;;;;;;;4892296;29;21187;-82
2021/12/06 03:05:55;;;;;;;25.13;9.63;;;;;;;;;;4893712;29;20456;-81
2021/12/06 03:08:35;;;;;;;22.00;10.33;;;;;;;;;;4902420;29;20488;-82
2021/12/06 03:11:04;;;;;;;21.43;9.97;;;;;;;;;;4901514;29;20464;-83
2021/12/06 03:13:31;;;;;;;20.53;9.20;;;;;;;;;;4901768;29;21066;-80
2021/12/06 03:15:59;;;;;;;21.17;9.43;;;;;;;;;;4907682;29;20965;-81
2021/12/06 03:18:26;;;;;;;23.10;9.97;;;;;;;;;;4910354;29;20488;-81
2021/12/06 03:20:53;;;;;;;22.67;9.40;;;;;;;;;;4901547;29;20449;-82
2021/12/06 03:23:21;;;;;;;23.23;9.43;;;;;;;;;;4900050;29;20567;-83
2021/12/06 03:25:48;;;;;;;21.23;9.50;;;;;;;;;;4901275;29;20472;-79
2021/12/06 03:28:17;;;;;;;17.53;8.70;;;;;;;;;;4903194;29;20845;-82
2021/12/06 03:30:44;;;;;;;21.77;9.33;;;;;;;;;;4903642;29;20235;-82
2021/12/06 03:33:11;;;;;;;19.63;10.07;;;;;;;;;;4900734;29;20700;-82
2021/12/06 03:35:38;;;;;;;20.20;9.10;;;;;;;;;;4905327;29;20570;-82
2021/12/06 03:38:06;;;;;;;22.10;9.80;;;;;;;;;;4898803;29;21321;-83
2021/12/06 03:40:33;;;;;;;22.67;9.87;;;;;;;;;;4905966;29;20507;-83
2021/12/06 03:43:00;;;;;;;21.60;10.30;;;;;;;;;;4908414;29;20468;-80
2021/12/06 03:45:29;;;;;;;24.20;10.33;;;;;;;;;;4904311;29;21060;-82
2021/12/06 03:47:58;;;;;;;22.80;10.10;;;;;;;;;;4907299;29;20586;-82
2021/12/06 03:50:25;;;;;;;26.80;11.13;;;;;;;;;;4906572;29;20469;-82
2021/12/06 03:52:52;;;;;;;24.57;10.73;;;;;;;;;;4908265;29;20477;-82
2021/12/06 03:55:20;;;;;;;22.80;10.37;;;;;;;;;;4903094;29;20482;-82
2021/12/06 03:57:47;;;;;;;26.00;11.33;;;;;;;;;;4908282;29;21121;-82
2021/12/06 04:00:15;;;;;;;24.33;11.53;;;;;;;;;;4898102;29;21229;-82
2021/12/06 04:02:44;;;;;;;25.47;10.67;;;;;;;;;;4897937;29;20550;-83
2021/12/06 04:05:11;;;;;;;23.10;10.63;;;;;;;;;;4897686;29;21430;-81
2021/12/06 04:07:38;;;;;;;25.97;10.83;;;;;;;;;;4911464;29;20560;-80
2021/12/06 04:10:08;;;;;;;27.83;11.43;;;;;;;;;;4912456;29;20467;-80
2021/12/06 04:12:35;;;;;;;25.70;11.67;;;;;;;;;;4916358;29;20474;-82
2021/12/06 04:15:03;;;;;;;24.70;10.83;;;;;;;;;;4915806;29;20468;-80
2021/12/06 04:17:30;;;;;;;23.37;11.23;;;;;;;;;;4919812;29;20227;-82
2021/12/06 04:19:59;;;;;;;24.23;10.97;;;;;;;;;;4918440;29;20239;-80
2021/12/06 04:22:26;;;;;;;27.00;11.00;;;;;;;;;;4919799;29;20469;-82
2021/12/06 04:24:53;;;;;;;29.30;11.30;;;;;;;;;;4919522;29;20496;-82
2021/12/06 04:27:21;;;;;;;29.37;11.60;;;;;;;;;;4916159;29;20492;-82
2021/12/06 04:29:51;;;;;;;32.63;11.37;;;;;;;;;;4918901;29;20224;-83
2021/12/06 04:32:18;;;;;;;28.77;10.90;;;;;;;;;;4921751;29;20204;-82
2021/12/06 04:34:46;;;;;;;34.10;11.03;;;;;;;;;;4917556;29;20472;-81
2021/12/06 04:37:15;;;;;;;35.13;11.60;;;;;;;;;;4919616;28;20481;-83
2021/12/06 04:39:42;;;;;;;30.17;11.73;;;;;;;;;;4892912;29;20465;-82
2021/12/06 04:42:10;;;;;;;37.50;12.07;;;;;;;;;;4903855;29;20326;-82
2021/12/06 04:44:38;;;;;;;35.00;12.87;;;;;;;;;;4906948;29;20456;-82
2021/12/06 04:47:06;;;;;;;30.37;11.73;;;;;;;;;;4902866;29;20238;-80
2021/12/06 04:49:33;;;;;;;30.30;11.43;;;;;;;;;;4892823;29;20242;-81
2021/12/06 04:52:02;;;;;;;27.90;12.23;;;;;;;;;;4883621;29;20267;-80
2021/12/06 04:54:32;;;;;;;33.70;12.57;;;;;;;;;;4892035;29;21004;-82
2021/12/06 04:57:01;;;;;;;48.17;12.37;;;;;;;;;;4887967;29;20238;-81
2021/12/06 04:59:30;;;;;;;51.33;13.70;;;;;;;;;;4887369;29;20422;-81
2021/12/06 05:01:59;;;;;;;38.87;12.87;;;;;;;;;;4888544;29;20302;-82
2021/12/06 05:04:28;;;;;;;36.13;13.93;;;;;;;;;;4888580;29;20273;-83
2021/12/06 05:06:58;;;;;;;32.50;12.93;;;;;;;;;;4884074;29;21492;-82
2021/12/06 05:09:27;;;;;;;33.57;12.70;;;;;;;;;;4893794;29;20218;-82
2021/12/06 05:11:59;;;;;;;32.07;10.73;;;;;;;;;;4899007;29;20232;-83
2021/12/06 05:14:27;;;;;;;33.80;11.83;;;;;;;;;;4890152;29;20234;-83
2021/12/06 05:16:54;;;;;;;34.40;13.67;;;;;;;;;;4895412;29;20223;-83
2021/12/06 05:19:22;;;;;;;37.50;13.10;;;;;;;;;;4889840;29;20207;-82
2021/12/06 05:21:49;;;;;;;37.73;13.40;;;;;;;;;;4898781;29;20890;-83
2021/12/06 05:24:17;;;;;;;39.17;14.30;;;;;;;;;;4900046;29;20272;-81
2021/12/06 05:26:44;;;;;;;33.20;14.00;;;;;;;;;;4889361;29;20234;-82
2021/12/06 05:29:14;;;;;;;39.10;13.87;;;;;;;;;;4885785;29;20350;-81
2021/12/06 05:31:42;;;;;;;39.20;13.03;;;;;;;;;;4910284;29;20348;-83
2021/12/06 05:34:14;;;;;;;32.33;12.37;;;;;;;;;;4901528;29;20225;-81
2021/12/06 05:36:41;;;;;;;36.33;12.80;;;;;;;;;;4903796;29;20238;-82
2021/12/06 05:39:09;;;;;;;40.67;13.53;;;;;;;;;;4904411;29;20629;-83
2021/12/06 05:41:36;;;;;;;33.87;11.57;;;;;;;;;;4905664;29;20276;-81
2021/12/06 05:44:05;;;;;;;42.10;12.33;;;;;;;;;;4897084;29;20272;-82
2021/12/06 05:46:35;;;;;;;31.33;11.93;;;;;;;;;;4894141;29;20200;-82
2021/12/06 05:49:03;;;;;;;28.50;10.73;;;;;;;;;;4903843;29;20208;-82
2021/12/06 05:51:31;;;;;;;31.00;11.93;;;;;;;;;;4912374;29;20279;-82
2021/12/06 05:53:58;;;;;;;33.73;12.47;;;;;;;;;;4911029;29;20311;-82
2021/12/06 05:56:25;;;;;;;33.17;12.00;;;;;;;;;;4906534;29;20201;-81
2021/12/06 05:58:52;;;;;;;30.50;11.57;;;;;;;;;;4911821;29;20244;-82
2021/12/06 06:01:23;;;;;;;25.87;11.03;;;;;;;;;;4902402;29;20757;-83
2021/12/06 06:03:52;;;;;;;25.53;9.77;;;;;;;;;;4910908;29;20211;-80
2021/12/06 06:06:19;;;;;;;23.47;10.33;;;;;;;;;;4910331;29;20215;-82
2021/12/06 06:08:47;;;;;;;26.10;9.80;;;;;;;;;;4909453;29;20228;-82
2021/12/06 06:11:14;;;;;;;25.17;10.43;;;;;;;;;;4906265;29;20298;-83
2021/12/06 06:13:41;;;;;;;27.43;10.73;;;;;;;;;;4916611;29;20511;-81
2021/12/06 06:16:08;;;;;;;31.47;11.63;;;;;;;;;;4909414;29;20665;-83
2021/12/06 06:18:36;;;;;;;34.57;13.53;;;;;;;;;;4903834;29;20500;-81
2021/12/06 06:21:05;;;;;;;31.70;13.57;;;;;;;;;;4911036;29;20200;-83
2021/12/06 06:23:34;;;;;;;30.80;11.93;;;;;;;;;;4930458;23;21394;-85
2021/12/06 06:26:04;;;;;;;30.37;11.63;;;;;;;;;;4944576;29;20238;-82
2021/12/06 10:19:31;;;;;;;24.17;11.10;;;;;;;;;;4939773;29;20589;-85
2021/12/06 10:21:59;;;;;;;29.33;10.23;;;;;;;;;;4943460;29;20229;-85
2021/12/06 10:24:27;;;;;;;21.77;10.23;;;;;;;;;;4938202;29;20239;-86
2021/12/06 10:27:04;;;;;;;26.33;10.97;;;;;;;;;;4934831;29;20708;-85
2021/12/06 10:29:38;;;;;;;28.07;13.23;;;;;;;;;;4942964;29;20239;-85
2021/12/06 10:34:55;;;;;;;22.23;10.70;;;;;;;;;;4943329;29;20242;-85
2021/12/06 10:37:36;;;;;;;21.00;10.77;;;;;;;;;;4935393;29;20248;-85
2021/12/06 10:40:06;;;;;;;23.27;10.47;;;;;;;;;;4938422;29;20222;-85
2021/12/06 10:42:36;;;;;;;21.73;9.87;;;;;;;;;;4936367;29;20211;-83
2021/12/06 10:48:02;;;;;;;24.13;10.20;;;;;;;;;;4939744;29;20229;-84
2021/12/06 10:53:35;;;;;;;22.93;9.70;;;;;;;;;;4939105;29;20203;-85
2021/12/06 10:56:02;;;;;;;25.43;9.27;;;;;;;;;;4937916;29;20546;-85
2021/12/06 10:58:31;;;;;;;21.37;9.73;;;;;;;;;;4942453;29;20282;-87
2021/12/06 11:00:59;;;;;;;23.10;10.73;;;;;;;;;;4939380;29;20281;-84
2021/12/06 11:03:29;;;;;;;24.20;10.20;;;;;;;;;;4937592;29;20217;-84
2021/12/06 11:05:59;;;;;;;24.07;11.10;;;;;;;;;;4936801;29;20285;-83
2021/12/06 11:08:27;;;;;;;26.60;10.10;;;;;;;;;;4938520;29;20255;-84
2021/12/06 11:10:57;;;;;;;20.20;9.93;;;;;;;;;;4936349;29;20220;-85
2021/12/06 11:13:25;;;;;;;20.40;10.40;;;;;;;;;;4935664;29;20203;-85
2021/12/06 11:15:57;;;;;;;23.70;9.97;;;;;;;;;;4940163;29;20235;-85
2021/12/06 11:18:31;;;;;;;23.20;10.93;;;;;;;;;;4936739;29;20785;-85
2021/12/06 11:20:59;;;;;;;23.17;11.10;;;;;;;;;;4940784;29;20278;-85
2021/12/06 11:23:26;;;;;;;24.57;10.40;;;;;;;;;;4937781;29;20231;-86
2021/12/06 11:25:59;;;;;;;28.93;10.53;;;;;;;;;;4940977;29;20222;-85
2021/12/06 11:28:27;;;;;;;17.73;8.40;;;;;;;;;;4951107;28;20278;-84
2021/12/06 11:30:58;;;;;;;17.70;9.07;;;;;;;;;;4940507;28;20216;-85
2021/12/06 11:33:30;;;;;;;20.73;9.10;;;;;;;;;;4938275;29;20759;-84
2021/12/06 11:35:57;;;;;;;20.87;8.93;;;;;;;;;;4936636;29;20207;-85
2021/12/06 11:38:28;;;;;;;22.60;10.17;;;;;;;;;;4934423;29;20238;-85
2021/12/06 11:40:57;;;;;;;21.67;8.67;;;;;;;;;;4935183;29;20222;-85
2021/12/06 11:43:26;;;;;;;17.10;7.83;;;;;;;;;;4938450;29;20887;-85
2021/12/06 11:45:55;;;;;;;25.80;14.50;;;;;;;;;;4936474;29;20223;-85
2021/12/06 11:48:24;;;;;;;33.70;17.63;;;;;;;;;;4933926;29;20314;-85
2021/12/06 11:50:53;;;;;;;33.93;16.43;;;;;;;;;;4936633;29;20214;-84
2021/12/06 11:53:23;;;;;;;27.53;13.50;;;;;;;;;;4944256;29;20226;-84
2021/12/06 11:55:51;;;;;;;21.23;11.70;;;;;;;;;;4942009;29;20278;-84
2021/12/06 11:58:26;;;;;;;22.13;10.53;;;;;;;;;;4937244;29;20241;-84
2021/12/06 12:01:05;;;;;;;20.03;9.50;;;;;;;;;;4938563;29;20214;-85
2021/12/06 12:03:33;;;;;;;23.87;9.10;;;;;;;;;;4938919;29;20234;-83
2021/12/06 12:06:01;;;;;;;23.73;10.17;;;;;;;;;;4942329;29;20596;-85
2021/12/06 12:08:32;;;;;;;25.50;12.20;;;;;;;;;;4938329;29;20227;-84
2021/12/06 12:10:59;;;;;;;27.17;14.17;;;;;;;;;;4934921;29;20258;-85
2021/12/06 12:13:30;;;;;;;23.40;13.00;;;;;;;;;;4932736;29;20353;-84
2021/12/06 12:15:58;;;;;;;21.43;10.13;;;;;;;;;;4934663;29;20317;-83
2021/12/06 12:18:26;;;;;;;14.57;8.20;;;;;;;;;;4936834;29;20261;-84
2021/12/06 12:20:55;;;;;;;19.67;9.10;;;;;;;;;;4937463;29;20223;-85
2021/12/06 12:23:23;;;;;;;20.67;9.53;;;;;;;;;;4936733;29;20736;-86
2021/12/06 12:25:55;;;;;;;24.60;9.57;;;;;;;;;;4938201;29;20237;-85
2021/12/06 12:28:25;;;;;;;17.80;8.03;;;;;;;;;;4932885;29;20746;-85
2021/12/06 12:30:55;;;;;;;18.93;8.23;;;;;;;;;;4936568;29;20579;-83
2021/12/06 12:33:23;;;;;;;18.83;8.10;;;;;;;;;;4934203;29;20609;-85
2021/12/06 12:35:51;;;;;;;15.63;7.83;;;;;;;;;;4938510;29;20294;-85
2021/12/06 12:38:21;;;;;;;18.17;7.33;;;;;;;;;;4934179;29;20250;-84
2021/12/06 12:40:49;;;;;;;18.93;7.90;;;;;;;;;;4934320;29;20881;-83
2021/12/06 12:43:18;;;;;;;12.47;6.27;;;;;;;;;;4936134;29;20686;-85
2021/12/06 12:45:48;;;;;;;13.57;5.50;;;;;;;;;;4931822;29;20240;-83
2021/12/06 12:48:20;;;;;;;10.73;5.50;;;;;;;;;;4938131;29;20230;-84
2021/12/06 12:51:02;;;;;;;11.33;5.47;;;;;;;;;;4934686;29;20298;-84
2021/12/06 12:53:29;;;;;;;7.87;3.90;;;;;;;;;;4935528;29;20214;-84
2021/12/06 12:55:56;;;;;;;7.20;4.53;;;;;;;;;;4932654;29;20289;-84
2021/12/06 12:58:25;;;;;;;8.57;3.80;;;;;;;;;;4934870;29;20246;-85
2021/12/06 13:00:56;;;;;;;6.30;3.10;;;;;;;;;;4934299;29;20254;-86
2021/12/06 13:03:31;;;;;;;7.03;4.20;;;;;;;;;;4932174;29;20219;-84
2021/12/06 13:06:16;;;;;;;11.40;6.03;;;;;;;;;;4940537;29;20287;-85
2021/12/06 13:08:43;;;;;;;6.27;4.17;;;;;;;;;;4937222;29;20249;-86
2021/12/06 13:11:13;;;;;;;6.83;3.20;;;;;;;;;;4942156;29;20350;-83
2021/12/06 13:13:46;;;;;;;6.90;3.00;;;;;;;;;;4943683;29;20225;-86
2021/12/06 13:16:29;;;;;;;9.00;3.80;;;;;;;;;;4938379;28;20226;-85
2021/12/06 13:19:11;;;;;;;8.33;3.80;;;;;;;;;;4940304;29;20676;-85
2021/12/06 13:21:44;;;;;;;11.17;6.53;;;;;;;;;;4937884;29;20230;-84
2021/12/06 13:24:34;;;;;;;20.27;10.53;;;;;;;;;;4939387;29;20212;-86
2021/12/06 13:27:03;;;;;;;5.90;2.97;;;;;;;;;;4939628;29;20278;-85
2021/12/06 13:29:40;;;;;;;8.70;4.50;;;;;;;;;;4939767;29;20207;-85
2021/12/06 13:32:22;;;;;;;6.90;2.93;;;;;;;;;;4940096;29;20234;-86
2021/12/06 13:34:55;;;;;;;3.97;2.60;;;;;;;;;;4939962;29;20234;-84
2021/12/06 13:37:26;;;;;;;22.30;6.63;;;;;;;;;;4938624;29;20230;-84
2021/12/06 13:39:54;;;;;;;19.37;6.40;;;;;;;;;;4939869;29;20207;-85
2021/12/06 13:42:36;;;;;;;11.37;4.63;;;;;;;;;;4939650;29;20207;-85
2021/12/06 13:45:06;;;;;;;9.60;3.77;;;;;;;;;;4940759;29;20218;-86
2021/12/06 13:47:34;;;;;;;8.97;3.73;;;;;;;;;;4937778;29;20238;-84
2021/12/06 13:50:11;;;;;;;6.17;3.10;;;;;;;;;;4937165;29;20298;-85
2021/12/06 13:52:39;;;;;;;7.97;2.80;;;;;;;;;;4935106;29;20267;-86
2021/12/06 13:55:20;;;;;;;4.20;2.13;;;;;;;;;;4937780;29;20235;-83
2021/12/06 13:57:48;;;;;;;5.90;2.90;;;;;;;;;;4935946;29;20299;-84
2021/12/06 14:00:23;;;;;;;5.47;3.70;;;;;;;;;;4933472;29;20645;-85
2021/12/06 14:02:51;;;;;;;10.10;4.10;;;;;;;;;;4931491;29;20282;-85
2021/12/06 14:05:20;;;;;;;7.47;4.00;;;;;;;;;;4938489;29;20207;-86
2021/12/06 14:07:48;;;;;;;4.10;2.17;;;;;;;;;;4939205;29;20314;-84
2021/12/06 14:10:16;;;;;;;4.80;2.80;;;;;;;;;;4936896;29;20244;-85
2021/12/06 14:12:44;;;;;;;8.27;3.07;;;;;;;;;;4934882;29;20211;-85
2021/12/06 14:15:21;;;;;;;12.73;3.27;;;;;;;;;;4948108;29;20227;-86
2021/12/06 14:17:50;;;;;;;11.20;5.00;;;;;;;;;;4934573;29;20294;-85
2021/12/06 14:20:39;;;;;;;8.27;1.93;;;;;;;;;;4933557;29;20215;-85
2021/12/06 14:23:44;;;;;;;5.43;3.07;;;;;;;;;;4936933;29;20215;-84
2021/12/06 14:26:26;;;;;;;4.93;3.10;;;;;;;;;;4932862;29;20213;-83
2021/12/06 14:29:00;;;;;;;8.00;4.37;;;;;;;;;;4934311;29;20705;-85
2021/12/06 15:32:20;;;;;;;23.30;10.30;;;;;;;;;;4909354;29;20267;-81
2021/12/06 15:34:48;;;;;;;17.93;8.60;;;;;;;;;;4916898;29;20239;-81
2021/12/06 15:37:15;;;;;;;19.20;9.37;;;;;;;;;;4915487;29;20234;-82
2021/12/06 15:39:45;;;;;;;17.33;8.53;;;;;;;;;;4913359;29;20290;-80
2021/12/06 15:42:16;;;;;;;12.73;7.13;;;;;;;;;;4921339;29;20207;-81
2021/12/06 15:44:44;;;;;;;16.20;7.37;;;;;;;;;;4908861;29;20227;-81
2021/12/06 15:47:13;;;;;;;25.37;9.70;;;;;;;;;;4916223;29;20208;-80
2021/12/06 15:49:43;;;;;;;26.73;11.67;;;;;;;;;;4920168;29;20208;-80
2021/12/06 15:52:12;;;;;;;30.60;12.53;;;;;;;;;;4909930;29;20215;-81
2021/12/06 15:54:42;;;;;;;22.07;10.90;;;;;;;;;;4903343;29;20827;-82
2021/12/06 15:57:11;;;;;;;25.83;10.27;;;;;;;;;;4906133;29;20922;-81
2021/12/06 15:59:38;;;;;;;25.50;11.67;;;;;;;;;;4895282;29;20208;-80
2021/12/06 16:02:06;;;;;;;27.53;12.13;;;;;;;;;;4903637;29;20646;-81
2021/12/06 16:04:35;;;;;;;30.60;12.63;;;;;;;;;;4914761;29;20247;-82
2021/12/06 16:07:04;;;;;;;19.77;9.80;;;;;;;;;;4906178;29;20738;-80
2021/12/06 16:09:31;;;;;;;26.77;11.47;;;;;;;;;;4906162;29;20212;-82
2021/12/06 16:12:16;;;;;;;31.80;13.77;;;;;;;;;;4919638;29;20211;-81
2021/12/06 16:14:46;;;;;;;29.03;14.03;;;;;;;;;;4909143;29;20227;-81
2021/12/06 16:17:14;;;;;;;23.97;10.57;;;;;;;;;;4912407;29;20210;-80
2021/12/06 16:19:41;;;;;;;38.07;16.13;;;;;;;;;;4929480;29;20216;-80
2021/12/06 16:22:12;;;;;;;37.17;14.90;;;;;;;;;;4918507;29;20231;-81
2021/12/06 16:24:45;;;;;;;18.37;9.50;;;;;;;;;;4906249;29;20643;-81
2021/12/06 16:27:29;;;;;;;33.17;15.00;;;;;;;;;;4908437;29;20204;-82
2021/12/06 16:29:57;;;;;;;24.27;11.60;;;;;;;;;;4895634;29;20219;-81
2021/12/06 16:32:30;;;;;;;24.27;10.40;;;;;;;;;;4905630;29;20780;-81
2021/12/06 16:34:58;;;;;;;19.77;9.97;;;;;;;;;;4910288;29;20267;-81
2021/12/06 16:37:27;;;;;;;19.60;10.30;;;;;;;;;;4911904;29;20214;-81
2021/12/06 16:39:56;;;;;;;18.67;8.93;;;;;;;;;;4908755;29;20219;-80
2021/12/06 16:42:54;;;;;;;16.93;9.30;;;;;;;;;;4924924;29;20212;-82
2021/12/06 16:45:23;;;;;;;16.90;8.23;;;;;;;;;;4930945;29;20223;-81
2021/12/06 16:47:54;;;;;;;13.07;7.87;;;;;;;;;;4920214;29;20653;-80
2021/12/06 16:50:24;;;;;;;36.13;15.80;;;;;;;;;;4916714;29;20315;-81
2021/12/06 16:52:54;;;;;;;17.53;7.57;;;;;;;;;;4910289;29;20231;-81
2021/12/06 16:55:23;;;;;;;14.37;7.27;;;;;;;;;;4910711;29;20283;-80
2021/12/06 16:57:58;;;;;;;14.03;7.07;;;;;;;;;;4910952;29;20246;-80
2021/12/06 17:00:29;;;;;;;13.80;6.33;;;;;;;;;;4898160;29;20741;-80
2021/12/06 17:03:01;;;;;;;12.40;6.13;;;;;;;;;;4901713;29;20405;-81
2021/12/06 17:05:30;;;;;;;11.30;6.30;;;;;;;;;;4901525;29;20328;-82
2021/12/06 17:08:05;;;;;;;11.13;5.47;;;;;;;;;;4916377;29;20635;-81
2021/12/06 17:10:33;;;;;;;12.30;5.47;;;;;;;;;;4913980;29;20332;-80
2021/12/06 17:13:01;;;;;;;8.90;5.77;;;;;;;;;;4912131;29;20302;-80
2021/12/06 17:15:30;;;;;;;9.43;5.50;;;;;;;;;;4908775;29;20314;-81
2021/12/06 17:17:59;;;;;;;9.83;4.93;;;;;;;;;;4902368;29;20330;-80
2021/12/06 17:20:29;;;;;;;9.87;5.70;;;;;;;;;;4902038;29;20211;-80
2021/12/06 17:22:57;;;;;;;13.30;5.20;;;;;;;;;;4903955;29;20740;-80
2021/12/06 17:25:29;;;;;;;8.83;4.53;;;;;;;;;;4916602;29;20338;-80
2021/12/06 17:27:57;;;;;;;11.17;6.27;;;;;;;;;;4913345;29;20677;-81
2021/12/06 17:30:30;;;;;;;12.07;6.00;;;;;;;;;;4914732;29;20357;-81
2021/12/06 17:32:59;;;;;;;10.83;6.10;;;;;;;;;;4914370;29;20227;-81
2021/12/06 17:35:27;;;;;;;10.67;5.90;;;;;;;;;;4916504;29;20231;-80
2021/12/06 17:37:54;;;;;;;8.33;4.47;;;;;;;;;;4913105;29;20728;-81
2021/12/06 17:40:22;;;;;;;17.10;9.00;;;;;;;;;;4901227;29;20408;-81
2021/12/06 17:42:50;;;;;;;11.03;6.13;;;;;;;;;;4904747;29;20223;-81
2021/12/06 17:45:18;;;;;;;22.10;12.23;;;;;;;;;;4913505;29;20315;-82
2021/12/06 17:47:46;;;;;;;12.33;6.30;;;;;;;;;;4912244;29;20234;-82
2021/12/06 17:50:13;;;;;;;11.10;5.27;;;;;;;;;;4917750;29;20729;-82
2021/12/06 17:52:41;;;;;;;8.97;4.40;;;;;;;;;;4921103;29;20239;-81
2021/12/06 17:55:10;;;;;;;11.00;5.43;;;;;;;;;;4917020;29;20627;-80
2021/12/06 17:57:49;;;;;;;10.07;5.33;;;;;;;;;;4916729;29;20274;-82
2021/12/06 18:00:44;;;;;;;10.57;5.17;;;;;;;;;;4928952;29;20211;-80
2021/12/06 18:03:12;;;;;;;13.27;6.00;;;;;;;;;;4910236;29;20235;-81
2021/12/06 18:05:40;;;;;;;17.20;9.07;;;;;;;;;;4920082;29;20261;-81
2021/12/06 18:08:07;;;;;;;11.23;6.37;;;;;;;;;;4918845;29;20220;-81
2021/12/06 18:10:34;;;;;;;13.47;6.80;;;;;;;;;;4923045;29;20665;-82
2021/12/06 18:13:02;;;;;;;17.53;8.43;;;;;;;;;;4917838;29;20284;-81
2021/12/06 18:15:29;;;;;;;32.87;15.57;;;;;;;;;;4922197;29;20228;-81
2021/12/06 18:17:58;;;;;;;11.40;6.27;;;;;;;;;;4923400;29;20591;-80
2021/12/06 18:20:28;;;;;;;9.93;5.50;;;;;;;;;;4921362;29;20271;-80
2021/12/06 18:22:55;;;;;;;13.80;6.77;;;;;;;;;;4922341;29;20211;-81
2021/12/06 18:25:22;;;;;;;21.73;8.80;;;;;;;;;;4919062;29;20718;-81
2021/12/06 18:27:50;;;;;;;8.80;3.83;;;;;;;;;;4923774;29;20212;-82
2021/12/06 18:30:18;;;;;;;14.20;6.90;;;;;;;;;;4929100;29;20226;-81
2021/12/06 18:32:46;;;;;;;10.37;5.50;;;;;;;;;;4927963;29;20264;-82
2021/12/06 18:35:14;;;;;;;37.07;16.77;;;;;;;;;;4922051;29;20657;-84
2021/12/06 18:37:46;;;;;;;21.63;9.27;;;;;;;;;;4920479;29;20286;-82
2021/12/06 18:40:24;;;;;;;22.63;9.10;;;;;;;;;;4929088;29;20239;-80
2021/12/06 18:42:53;;;;;;;8.93;4.67;;;;;;;;;;4924353;29;20223;-80
2021/12/06 18:45:21;;;;;;;7.37;4.20;;;;;;;;;;4921500;29;20672;-80
2021/12/06 18:47:51;;;;;;;7.57;3.97;;;;;;;;;;4925945;28;20235;-80
2021/12/06 18:50:19;;;;;;;7.33;3.57;;;;;;;;;;4924027;29;20618;-80
2021/12/06 18:52:48;;;;;;;8.63;4.27;;;;;;;;;;4924189;29;20751;-80
2021/12/06 18:55:16;;;;;;;8.90;4.27;;;;;;;;;;4916847;29;20617;-80
2021/12/06 18:57:43;;;;;;;13.40;4.90;;;;;;;;;;4922153;29;20287;-81
2021/12/06 19:00:12;;;;;;;11.70;5.60;;;;;;;;;;4914806;29;20259;-82
2021/12/06 19:02:39;;;;;;;11.40;4.80;;;;;;;;;;4922020;29;20207;-80
2021/12/06 19:05:07;;;;;;;11.47;5.67;;;;;;;;;;4914723;29;20326;-81
2021/12/06 19:07:34;;;;;;;11.83;5.27;;;;;;;;;;4917020;29;20235;-80
2021/12/06 19:10:07;;;;;;;8.00;4.63;;;;;;;;;;4934118;28;20199;-81
2021/12/06 19:12:35;;;;;;;12.70;5.63;;;;;;;;;;4910709;29;20238;-79
2021/12/06 19:15:02;;;;;;;9.63;5.40;;;;;;;;;;4902323;29;20255;-79
2021/12/06 19:17:30;;;;;;;13.03;6.03;;;;;;;;;;4905993;29;20267;-80
2021/12/06 19:19:57;;;;;;;18.33;5.93;;;;;;;;;;4915228;29;20216;-80
2021/12/06 19:22:24;;;;;;;9.87;5.27;;;;;;;;;;4915647;29;20227;-78
2021/12/06 19:24:52;;;;;;;11.90;5.70;;;;;;;;;;4915888;29;20267;-80
2021/12/06 19:27:20;;;;;;;11.17;6.23;;;;;;;;;;4920857;29;20253;-79
2021/12/06 19:29:48;;;;;;;12.53;5.80;;;;;;;;;;4922405;29;20631;-79
2021/12/06 19:32:15;;;;;;;13.67;6.73;;;;;;;;;;4918310;29;20239;-80
2021/12/06 19:34:45;;;;;;;12.10;6.43;;;;;;;;;;4910684;29;20275;-80
2021/12/06 19:37:13;;;;;;;12.53;6.27;;;;;;;;;;4917905;29;20279;-80
2021/12/06 19:39:41;;;;;;;17.10;7.40;;;;;;;;;;4920732;29;20258;-80
2021/12/06 19:42:09;;;;;;;13.20;7.17;;;;;;;;;;4921669;29;20247;-80
2021/12/06 19:44:38;;;;;;;12.60;6.50;;;;;;;;;;4917701;29;20306;-80
2021/12/06 19:47:07;;;;;;;15.33;7.20;;;;;;;;;;4920289;29;20302;-80
2021/12/06 19:49:35;;;;;;;14.10;6.77;;;;;;;;;;4918290;29;20295;-80
2021/12/06 19:52:03;;;;;;;13.17;6.67;;;;;;;;;;4921301;29;20215;-80